sensor_id;sensor_type;location;lat;lon;timestamp;temperature;humidity
69082;DHT22;56184;51.986;5.760;2022-08-21T00:00:10;16.50;77.20
69082;DHT22;56184;51.986;5.760;2022-08-21T00:02:37;16.40;77.00
69082;DHT22;56184;51.986;5.760;2022-08-21T00:05:03;16.40;77.00
69082;DHT22;56184;51.986;5.760;2022-08-21T00:07:29;16.40;76.90
69082;DHT22;56184;51.986;5.760;2022-08-21T00:09:55;16.30;77.70
69082;DHT22;56184;51.986;5.760;2022-08-21T00:12:21;16.30;76.10
69082;DHT22;56184;51.986;5.760;2022-08-21T00:14:47;16.30;77.30
69082;DHT22;56184;51.986;5.760;2022-08-21T00:17:12;16.20;78.20
69082;DHT22;56184;51.986;5.760;2022-08-21T00:19:38;16.20;78.50
69082;DHT22;56184;51.986;5.760;2022-08-21T00:22:04;16.10;78.80
69082;DHT22;56184;51.986;5.760;2022-08-21T00:24:35;16.10;79.10
69082;DHT22;56184;51.986;5.760;2022-08-21T00:27:18;16.10;78.10
69082;DHT22;56184;51.986;5.760;2022-08-21T00:29:46;16.00;81.50
69082;DHT22;56184;51.986;5.760;2022-08-21T00:32:11;16.00;79.50
69082;DHT22;56184;51.986;5.760;2022-08-21T00:34:37;16.00;79.60
69082;DHT22;56184;51.986;5.760;2022-08-21T00:37:02;16.00;79.70
69082;DHT22;56184;51.986;5.760;2022-08-21T00:39:28;15.90;79.40
69082;DHT22;56184;51.986;5.760;2022-08-21T00:41:54;15.90;78.90
69082;DHT22;56184;51.986;5.760;2022-08-21T00:44:19;15.90;78.70
69082;DHT22;56184;51.986;5.760;2022-08-21T00:46:45;15.90;78.50
69082;DHT22;56184;51.986;5.760;2022-08-21T00:49:12;15.80;79.20
69082;DHT22;56184;51.986;5.760;2022-08-21T00:51:47;15.80;78.20
69082;DHT22;56184;51.986;5.760;2022-08-21T00:54:15;15.70;80.00
69082;DHT22;56184;51.986;5.760;2022-08-21T00:56:41;15.70;80.40
69082;DHT22;56184;51.986;5.760;2022-08-21T00:59:07;15.60;79.70
69082;DHT22;56184;51.986;5.760;2022-08-21T01:01:34;15.60;79.70
69082;DHT22;56184;51.986;5.760;2022-08-21T01:03:59;15.60;79.90
69082;DHT22;56184;51.986;5.760;2022-08-21T01:06:25;15.60;80.10
69082;DHT22;56184;51.986;5.760;2022-08-21T01:08:51;15.60;79.30
69082;DHT22;56184;51.986;5.760;2022-08-21T01:11:17;15.60;80.30
69082;DHT22;56184;51.986;5.760;2022-08-21T01:13:43;15.50;80.20
69082;DHT22;56184;51.986;5.760;2022-08-21T01:16:14;15.50;81.10
69082;DHT22;56184;51.986;5.760;2022-08-21T01:18:41;15.40;81.30
69082;DHT22;56184;51.986;5.760;2022-08-21T01:21:19;15.40;80.90
69082;DHT22;56184;51.986;5.760;2022-08-21T01:23:49;15.40;79.80
69082;DHT22;56184;51.986;5.760;2022-08-21T01:26:17;15.40;80.40
69082;DHT22;56184;51.986;5.760;2022-08-21T01:29:14;15.40;80.70
69082;DHT22;56184;51.986;5.760;2022-08-21T01:31:42;15.40;79.60
69082;DHT22;56184;51.986;5.760;2022-08-21T01:34:08;15.30;80.00
69082;DHT22;56184;51.986;5.760;2022-08-21T01:36:34;15.30;81.60
69082;DHT22;56184;51.986;5.760;2022-08-21T01:39:00;15.20;80.40
69082;DHT22;56184;51.986;5.760;2022-08-21T01:41:27;15.20;79.90
69082;DHT22;56184;51.986;5.760;2022-08-21T01:43:52;15.10;80.80
69082;DHT22;56184;51.986;5.760;2022-08-21T01:46:18;15.10;80.30
69082;DHT22;56184;51.986;5.760;2022-08-21T01:48:43;15.10;81.40
69082;DHT22;56184;51.986;5.760;2022-08-21T01:51:09;15.10;80.70
69082;DHT22;56184;51.986;5.760;2022-08-21T01:53:35;15.00;82.00
69082;DHT22;56184;51.986;5.760;2022-08-21T01:56:08;15.00;80.40
69082;DHT22;56184;51.986;5.760;2022-08-21T01:58:35;15.00;80.20
69082;DHT22;56184;51.986;5.760;2022-08-21T02:01:01;15.00;81.70
69082;DHT22;56184;51.986;5.760;2022-08-21T02:03:28;15.00;79.40
69082;DHT22;56184;51.986;5.760;2022-08-21T02:05:54;14.90;81.90
69082;DHT22;56184;51.986;5.760;2022-08-21T02:08:20;14.90;81.50
69082;DHT22;56184;51.986;5.760;2022-08-21T02:10:48;14.90;82.90
69082;DHT22;56184;51.986;5.760;2022-08-21T02:13:15;14.90;81.60
69082;DHT22;56184;51.986;5.760;2022-08-21T02:15:40;14.90;83.20
69082;DHT22;56184;51.986;5.760;2022-08-21T02:18:06;14.80;81.70
69082;DHT22;56184;51.986;5.760;2022-08-21T02:20:38;14.80;81.80
69082;DHT22;56184;51.986;5.760;2022-08-21T02:23:05;14.90;79.90
69082;DHT22;56184;51.986;5.760;2022-08-21T02:25:38;14.90;81.90
69082;DHT22;56184;51.986;5.760;2022-08-21T02:28:06;14.90;81.30
69082;DHT22;56184;51.986;5.760;2022-08-21T02:30:35;14.90;83.00
69082;DHT22;56184;51.986;5.760;2022-08-21T02:33:03;14.90;80.10
69082;DHT22;56184;51.986;5.760;2022-08-21T02:35:29;14.90;82.40
69082;DHT22;56184;51.986;5.760;2022-08-21T02:38:02;14.90;82.10
69082;DHT22;56184;51.986;5.760;2022-08-21T02:40:31;14.90;83.90
69082;DHT22;56184;51.986;5.760;2022-08-21T02:42:58;14.90;84.90
69082;DHT22;56184;51.986;5.760;2022-08-21T02:45:27;14.90;83.80
69082;DHT22;56184;51.986;5.760;2022-08-21T02:47:57;14.90;80.20
69082;DHT22;56184;51.986;5.760;2022-08-21T02:50:31;14.90;85.70
69082;DHT22;56184;51.986;5.760;2022-08-21T02:52:57;14.80;86.40
69082;DHT22;56184;51.986;5.760;2022-08-21T02:55:25;14.70;86.10
69082;DHT22;56184;51.986;5.760;2022-08-21T02:57:53;14.70;85.60
69082;DHT22;56184;51.986;5.760;2022-08-21T03:00:20;14.70;86.50
69082;DHT22;56184;51.986;5.760;2022-08-21T03:02:46;14.70;86.00
69082;DHT22;56184;51.986;5.760;2022-08-21T03:05:13;14.70;87.20
69082;DHT22;56184;51.986;5.760;2022-08-21T03:07:40;14.70;85.40
69082;DHT22;56184;51.986;5.760;2022-08-21T03:10:06;14.70;85.10
69082;DHT22;56184;51.986;5.760;2022-08-21T03:12:32;14.70;86.50
69082;DHT22;56184;51.986;5.760;2022-08-21T03:14:58;14.70;87.30
69082;DHT22;56184;51.986;5.760;2022-08-21T03:17:24;14.60;87.40
69082;DHT22;56184;51.986;5.760;2022-08-21T03:19:50;14.60;87.10
69082;DHT22;56184;51.986;5.760;2022-08-21T03:22:15;14.60;85.90
69082;DHT22;56184;51.986;5.760;2022-08-21T03:24:41;14.50;86.30
69082;DHT22;56184;51.986;5.760;2022-08-21T03:27:07;14.50;87.50
69082;DHT22;56184;51.986;5.760;2022-08-21T03:29:32;14.50;87.00
69082;DHT22;56184;51.986;5.760;2022-08-21T03:31:58;14.50;88.00
69082;DHT22;56184;51.986;5.760;2022-08-21T03:34:23;14.50;87.80
69082;DHT22;56184;51.986;5.760;2022-08-21T03:36:50;14.50;88.50
69082;DHT22;56184;51.986;5.760;2022-08-21T03:39:17;14.40;88.60
69082;DHT22;56184;51.986;5.760;2022-08-21T03:41:42;14.40;87.60
69082;DHT22;56184;51.986;5.760;2022-08-21T03:44:08;14.40;86.30
69082;DHT22;56184;51.986;5.760;2022-08-21T03:46:34;14.50;83.40
69082;DHT22;56184;51.986;5.760;2022-08-21T03:49:00;14.50;86.70
69082;DHT22;56184;51.986;5.760;2022-08-21T03:51:26;14.50;84.90
69082;DHT22;56184;51.986;5.760;2022-08-21T03:53:52;14.50;85.00
69082;DHT22;56184;51.986;5.760;2022-08-21T03:56:18;14.50;86.30
69082;DHT22;56184;51.986;5.760;2022-08-21T03:58:43;14.50;82.00
69082;DHT22;56184;51.986;5.760;2022-08-21T04:01:10;14.50;84.40
69082;DHT22;56184;51.986;5.760;2022-08-21T04:03:36;14.40;85.00
69082;DHT22;56184;51.986;5.760;2022-08-21T04:06:02;14.30;86.30
69082;DHT22;56184;51.986;5.760;2022-08-21T04:08:28;14.40;84.60
69082;DHT22;56184;51.986;5.760;2022-08-21T04:10:56;14.40;83.30
69082;DHT22;56184;51.986;5.760;2022-08-21T04:13:23;14.30;85.10
69082;DHT22;56184;51.986;5.760;2022-08-21T04:15:49;14.40;86.60
69082;DHT22;56184;51.986;5.760;2022-08-21T04:18:15;14.30;88.00
69082;DHT22;56184;51.986;5.760;2022-08-21T04:20:42;14.30;88.40
69082;DHT22;56184;51.986;5.760;2022-08-21T04:23:08;14.30;87.80
69082;DHT22;56184;51.986;5.760;2022-08-21T04:25:34;14.20;89.20
69082;DHT22;56184;51.986;5.760;2022-08-21T04:28:00;14.10;89.50
69082;DHT22;56184;51.986;5.760;2022-08-21T04:30:27;14.10;89.10
69082;DHT22;56184;51.986;5.760;2022-08-21T04:32:52;14.10;89.00
69082;DHT22;56184;51.986;5.760;2022-08-21T04:35:21;14.00;88.60
69082;DHT22;56184;51.986;5.760;2022-08-21T04:37:47;14.00;88.30
69082;DHT22;56184;51.986;5.760;2022-08-21T04:40:15;13.90;88.40
69082;DHT22;56184;51.986;5.760;2022-08-21T04:42:45;13.90;88.40
69082;DHT22;56184;51.986;5.760;2022-08-21T04:45:35;13.90;88.50
69082;DHT22;56184;51.986;5.760;2022-08-21T04:48:04;13.90;88.90
69082;DHT22;56184;51.986;5.760;2022-08-21T04:50:45;13.80;88.30
69082;DHT22;56184;51.986;5.760;2022-08-21T04:53:17;13.80;89.70
69082;DHT22;56184;51.986;5.760;2022-08-21T04:55:44;13.80;89.30
69082;DHT22;56184;51.986;5.760;2022-08-21T04:58:13;13.80;90.60
69082;DHT22;56184;51.986;5.760;2022-08-21T05:00:40;13.70;90.50
69082;DHT22;56184;51.986;5.760;2022-08-21T05:03:07;13.70;90.30
69082;DHT22;56184;51.986;5.760;2022-08-21T05:05:35;13.70;90.90
69082;DHT22;56184;51.986;5.760;2022-08-21T05:08:02;13.70;90.50
69082;DHT22;56184;51.986;5.760;2022-08-21T05:10:28;13.70;90.40
69082;DHT22;56184;51.986;5.760;2022-08-21T05:12:54;13.70;91.30
69082;DHT22;56184;51.986;5.760;2022-08-21T05:15:20;13.70;91.40
69082;DHT22;56184;51.986;5.760;2022-08-21T05:17:46;13.60;90.10
69082;DHT22;56184;51.986;5.760;2022-08-21T05:20:13;13.70;91.80
69082;DHT22;56184;51.986;5.760;2022-08-21T05:22:39;13.70;91.90
69082;DHT22;56184;51.986;5.760;2022-08-21T05:25:06;13.70;91.60
69082;DHT22;56184;51.986;5.760;2022-08-21T05:27:32;13.70;92.00
69082;DHT22;56184;51.986;5.760;2022-08-21T05:29:58;13.70;92.00
69082;DHT22;56184;51.986;5.760;2022-08-21T05:32:23;13.70;91.90
69082;DHT22;56184;51.986;5.760;2022-08-21T05:34:50;13.70;92.90
69082;DHT22;56184;51.986;5.760;2022-08-21T05:37:15;13.70;92.40
69082;DHT22;56184;51.986;5.760;2022-08-21T05:39:41;13.80;92.60
69082;DHT22;56184;51.986;5.760;2022-08-21T05:42:07;13.80;92.90
69082;DHT22;56184;51.986;5.760;2022-08-21T05:44:33;13.90;93.30
69082;DHT22;56184;51.986;5.760;2022-08-21T05:47:06;13.90;92.90
69082;DHT22;56184;51.986;5.760;2022-08-21T05:49:32;14.00;94.30
69082;DHT22;56184;51.986;5.760;2022-08-21T05:51:58;14.00;94.30
69082;DHT22;56184;51.986;5.760;2022-08-21T05:54:24;14.10;94.20
69082;DHT22;56184;51.986;5.760;2022-08-21T05:56:49;14.20;94.50
69082;DHT22;56184;51.986;5.760;2022-08-21T05:59:15;14.20;94.60
69082;DHT22;56184;51.986;5.760;2022-08-21T06:01:41;14.30;94.70
69082;DHT22;56184;51.986;5.760;2022-08-21T06:04:07;14.40;95.10
69082;DHT22;56184;51.986;5.760;2022-08-21T06:06:34;14.50;95.30
69082;DHT22;56184;51.986;5.760;2022-08-21T06:09:00;14.50;95.30
69082;DHT22;56184;51.986;5.760;2022-08-21T06:11:25;14.60;95.20
69082;DHT22;56184;51.986;5.760;2022-08-21T06:13:51;14.70;95.30
69082;DHT22;56184;51.986;5.760;2022-08-21T06:16:17;14.80;95.30
69082;DHT22;56184;51.986;5.760;2022-08-21T06:18:44;14.80;95.50
69082;DHT22;56184;51.986;5.760;2022-08-21T06:21:10;14.90;94.90
69082;DHT22;56184;51.986;5.760;2022-08-21T06:23:37;15.10;95.00
69082;DHT22;56184;51.986;5.760;2022-08-21T06:26:04;15.20;94.90
69082;DHT22;56184;51.986;5.760;2022-08-21T06:28:31;15.20;94.90
69082;DHT22;56184;51.986;5.760;2022-08-21T06:30:57;15.40;95.20
69082;DHT22;56184;51.986;5.760;2022-08-21T06:33:23;15.40;93.80
69082;DHT22;56184;51.986;5.760;2022-08-21T06:35:49;15.50;93.60
69082;DHT22;56184;51.986;5.760;2022-08-21T06:38:16;15.60;93.80
69082;DHT22;56184;51.986;5.760;2022-08-21T06:40:41;15.60;94.20
69082;DHT22;56184;51.986;5.760;2022-08-21T06:43:14;15.70;94.20
69082;DHT22;56184;51.986;5.760;2022-08-21T06:45:40;15.70;92.00
69082;DHT22;56184;51.986;5.760;2022-08-21T06:48:14;15.80;92.90
69082;DHT22;56184;51.986;5.760;2022-08-21T06:50:40;16.00;93.90
69082;DHT22;56184;51.986;5.760;2022-08-21T06:53:08;16.00;94.20
69082;DHT22;56184;51.986;5.760;2022-08-21T06:55:36;16.10;93.90
69082;DHT22;56184;51.986;5.760;2022-08-21T06:58:02;16.20;92.20
69082;DHT22;56184;51.986;5.760;2022-08-21T07:00:28;16.30;93.50
69082;DHT22;56184;51.986;5.760;2022-08-21T07:02:54;16.40;92.10
69082;DHT22;56184;51.986;5.760;2022-08-21T07:05:20;16.50;91.70
69082;DHT22;56184;51.986;5.760;2022-08-21T07:07:46;16.60;92.10
69082;DHT22;56184;51.986;5.760;2022-08-21T07:10:13;16.60;93.10
69082;DHT22;56184;51.986;5.760;2022-08-21T07:12:39;16.70;92.60
69082;DHT22;56184;51.986;5.760;2022-08-21T07:15:05;16.70;92.00
69082;DHT22;56184;51.986;5.760;2022-08-21T07:17:30;16.80;92.90
69082;DHT22;56184;51.986;5.760;2022-08-21T07:19:56;16.80;92.90
69082;DHT22;56184;51.986;5.760;2022-08-21T07:22:23;17.00;92.80
69082;DHT22;56184;51.986;5.760;2022-08-21T07:24:49;17.10;91.80
69082;DHT22;56184;51.986;5.760;2022-08-21T07:27:15;17.20;92.50
69082;DHT22;56184;51.986;5.760;2022-08-21T07:29:41;17.30;92.60
69082;DHT22;56184;51.986;5.760;2022-08-21T07:32:07;17.30;92.30
69082;DHT22;56184;51.986;5.760;2022-08-21T07:34:32;17.40;92.10
69082;DHT22;56184;51.986;5.760;2022-08-21T07:36:58;17.50;92.10
69082;DHT22;56184;51.986;5.760;2022-08-21T07:39:24;17.60;90.40
69082;DHT22;56184;51.986;5.760;2022-08-21T07:41:50;17.70;91.80
69082;DHT22;56184;51.986;5.760;2022-08-21T07:44:16;17.90;91.80
69082;DHT22;56184;51.986;5.760;2022-08-21T07:46:42;18.00;91.70
69082;DHT22;56184;51.986;5.760;2022-08-21T07:49:07;18.00;91.50
69082;DHT22;56184;51.986;5.760;2022-08-21T07:51:33;18.00;90.40
69082;DHT22;56184;51.986;5.760;2022-08-21T07:54:00;18.10;90.10
69082;DHT22;56184;51.986;5.760;2022-08-21T07:56:28;18.20;91.00
69082;DHT22;56184;51.986;5.760;2022-08-21T07:58:55;18.20;90.80
69082;DHT22;56184;51.986;5.760;2022-08-21T08:01:22;18.20;89.00
69082;DHT22;56184;51.986;5.760;2022-08-21T08:03:48;18.30;90.40
69082;DHT22;56184;51.986;5.760;2022-08-21T08:06:14;18.40;90.70
69082;DHT22;56184;51.986;5.760;2022-08-21T08:08:41;18.50;90.90
69082;DHT22;56184;51.986;5.760;2022-08-21T08:11:08;18.60;90.60
69082;DHT22;56184;51.986;5.760;2022-08-21T08:13:45;18.60;90.20
69082;DHT22;56184;51.986;5.760;2022-08-21T08:16:11;18.80;90.40
69082;DHT22;56184;51.986;5.760;2022-08-21T08:18:36;18.90;90.70
69082;DHT22;56184;51.986;5.760;2022-08-21T08:21:03;19.00;90.90
69082;DHT22;56184;51.986;5.760;2022-08-21T08:23:28;18.90;85.40
69082;DHT22;56184;51.986;5.760;2022-08-21T08:25:56;19.00;86.00
69082;DHT22;56184;51.986;5.760;2022-08-21T08:28:21;19.10;87.90
69082;DHT22;56184;51.986;5.760;2022-08-21T08:30:47;19.10;87.20
69082;DHT22;56184;51.986;5.760;2022-08-21T08:33:13;19.20;89.10
69082;DHT22;56184;51.986;5.760;2022-08-21T08:35:39;19.30;88.80
69082;DHT22;56184;51.986;5.760;2022-08-21T08:38:05;19.30;87.80
69082;DHT22;56184;51.986;5.760;2022-08-21T08:43:01;19.30;86.00
69082;DHT22;56184;51.986;5.760;2022-08-21T08:45:28;19.40;87.90
69082;DHT22;56184;51.986;5.760;2022-08-21T08:48:05;19.50;88.00
69082;DHT22;56184;51.986;5.760;2022-08-21T08:50:49;19.60;87.20
69082;DHT22;56184;51.986;5.760;2022-08-21T08:55:53;19.70;82.90
69082;DHT22;56184;51.986;5.760;2022-08-21T09:00:51;19.80;85.40
69082;DHT22;56184;51.986;5.760;2022-08-21T09:03:17;19.90;83.60
69082;DHT22;56184;51.986;5.760;2022-08-21T09:05:47;20.00;84.20
69082;DHT22;56184;51.986;5.760;2022-08-21T09:14:45;20.20;83.90
69082;DHT22;56184;51.986;5.760;2022-08-21T09:26:04;20.50;79.90
69082;DHT22;56184;51.986;5.760;2022-08-21T09:28:34;20.50;77.80
69082;DHT22;56184;51.986;5.760;2022-08-21T09:31:03;20.60;78.70
69082;DHT22;56184;51.986;5.760;2022-08-21T09:33:30;20.60;78.70
69082;DHT22;56184;51.986;5.760;2022-08-21T09:35:56;20.70;78.30
69082;DHT22;56184;51.986;5.760;2022-08-21T09:38:31;20.80;76.80
69082;DHT22;56184;51.986;5.760;2022-08-21T09:41:09;20.90;77.90
69082;DHT22;56184;51.986;5.760;2022-08-21T09:43:36;21.00;76.90
69082;DHT22;56184;51.986;5.760;2022-08-21T09:48:49;21.30;75.90
69082;DHT22;56184;51.986;5.760;2022-08-21T09:51:22;21.50;74.60
69082;DHT22;56184;51.986;5.760;2022-08-21T09:53:53;21.40;74.80
69082;DHT22;56184;51.986;5.760;2022-08-21T09:56:25;21.50;73.30
69082;DHT22;56184;51.986;5.760;2022-08-21T09:59:20;21.60;71.40
69082;DHT22;56184;51.986;5.760;2022-08-21T10:01:52;21.70;70.90
69082;DHT22;56184;51.986;5.760;2022-08-21T10:04:32;21.70;70.90
69082;DHT22;56184;51.986;5.760;2022-08-21T10:07:13;21.80;70.90
69082;DHT22;56184;51.986;5.760;2022-08-21T10:09:40;22.00;70.30
69082;DHT22;56184;51.986;5.760;2022-08-21T10:12:18;22.10;69.90
69082;DHT22;56184;51.986;5.760;2022-08-21T10:14:54;22.20;69.50
69082;DHT22;56184;51.986;5.760;2022-08-21T10:17:52;22.20;70.10
69082;DHT22;56184;51.986;5.760;2022-08-21T10:36:52;23.30;61.40
69082;DHT22;56184;51.986;5.760;2022-08-21T10:39:37;23.40;62.20
69082;DHT22;56184;51.986;5.760;2022-08-21T10:42:29;23.70;62.00
69082;DHT22;56184;51.986;5.760;2022-08-21T10:47:43;23.60;62.30
69082;DHT22;56184;51.986;5.760;2022-08-21T10:53:50;24.10;60.90
69082;DHT22;56184;51.986;5.760;2022-08-21T10:56:23;24.00;59.80
69082;DHT22;56184;51.986;5.760;2022-08-21T10:59:14;24.40;58.80
69082;DHT22;56184;51.986;5.760;2022-08-21T11:02:00;24.60;58.20
69082;DHT22;56184;51.986;5.760;2022-08-21T11:07:18;25.60;55.20
69082;DHT22;56184;51.986;5.760;2022-08-21T11:09:47;26.00;55.30
69082;DHT22;56184;51.986;5.760;2022-08-21T11:14:56;26.50;54.80
69082;DHT22;56184;51.986;5.760;2022-08-21T11:17:37;26.60;53.20
69082;DHT22;56184;51.986;5.760;2022-08-21T11:25:35;28.40;52.00
69082;DHT22;56184;51.986;5.760;2022-08-21T11:28:10;28.40;49.40
69082;DHT22;56184;51.986;5.760;2022-08-21T11:30:56;28.90;48.30
69082;DHT22;56184;51.986;5.760;2022-08-21T11:36:20;29.80;46.50
69082;DHT22;56184;51.986;5.760;2022-08-21T11:38:56;29.70;48.40
69082;DHT22;56184;51.986;5.760;2022-08-21T11:41:37;30.10;48.40
69082;DHT22;56184;51.986;5.760;2022-08-21T11:44:17;30.70;47.90
69082;DHT22;56184;51.986;5.760;2022-08-21T11:50:15;31.70;44.90
69082;DHT22;56184;51.986;5.760;2022-08-21T11:55:16;32.10;48.00
69082;DHT22;56184;51.986;5.760;2022-08-21T11:58:09;32.30;43.30
69082;DHT22;56184;51.986;5.760;2022-08-21T12:00:40;32.40;45.40
69082;DHT22;56184;51.986;5.760;2022-08-21T12:03:17;33.00;46.10
69082;DHT22;56184;51.986;5.760;2022-08-21T12:06:01;33.40;43.20
69082;DHT22;56184;51.986;5.760;2022-08-21T12:11:23;34.80;44.00
69082;DHT22;56184;51.986;5.760;2022-08-21T12:16:35;34.80;39.30
69082;DHT22;56184;51.986;5.760;2022-08-21T12:19:11;34.80;40.40
69082;DHT22;56184;51.986;5.760;2022-08-21T12:24:50;35.70;38.80
69082;DHT22;56184;51.986;5.760;2022-08-21T12:27:30;36.10;41.30
69082;DHT22;56184;51.986;5.760;2022-08-21T12:30:18;36.30;36.00
69082;DHT22;56184;51.986;5.760;2022-08-21T12:32:57;36.30;38.20
69082;DHT22;56184;51.986;5.760;2022-08-21T12:35:27;35.80;38.60
69082;DHT22;56184;51.986;5.760;2022-08-21T12:40:40;34.50;39.90
69082;DHT22;56184;51.986;5.760;2022-08-21T12:43:13;35.20;36.40
69082;DHT22;56184;51.986;5.760;2022-08-21T12:45:48;36.80;36.40
69082;DHT22;56184;51.986;5.760;2022-08-21T12:48:20;37.70;31.80
69082;DHT22;56184;51.986;5.760;2022-08-21T12:50:54;37.60;35.30
69082;DHT22;56184;51.986;5.760;2022-08-21T12:55:50;36.80;36.30
69082;DHT22;56184;51.986;5.760;2022-08-21T12:58:23;37.20;36.60
69082;DHT22;56184;51.986;5.760;2022-08-21T13:01:07;37.70;32.40
69082;DHT22;56184;51.986;5.760;2022-08-21T13:03:38;37.90;34.60
69082;DHT22;56184;51.986;5.760;2022-08-21T13:06:07;38.60;35.00
69082;DHT22;56184;51.986;5.760;2022-08-21T13:08:38;38.60;28.70
69082;DHT22;56184;51.986;5.760;2022-08-21T13:11:05;38.00;34.50
69082;DHT22;56184;51.986;5.760;2022-08-21T13:13:32;38.50;32.20
69082;DHT22;56184;51.986;5.760;2022-08-21T13:16:06;38.90;32.50
69082;DHT22;56184;51.986;5.760;2022-08-21T13:18:34;40.00;32.90
69082;DHT22;56184;51.986;5.760;2022-08-21T13:21:14;40.80;27.60
69082;DHT22;56184;51.986;5.760;2022-08-21T13:23:40;39.90;29.00
69082;DHT22;56184;51.986;5.760;2022-08-21T13:26:20;40.20;28.80
69082;DHT22;56184;51.986;5.760;2022-08-21T13:28:47;40.10;28.10
69082;DHT22;56184;51.986;5.760;2022-08-21T13:31:24;40.20;29.30
69082;DHT22;56184;51.986;5.760;2022-08-21T13:33:53;41.10;29.70
69082;DHT22;56184;51.986;5.760;2022-08-21T13:36:30;40.60;26.60
69082;DHT22;56184;51.986;5.760;2022-08-21T13:38:57;40.70;25.50
69082;DHT22;56184;51.986;5.760;2022-08-21T13:41:29;40.70;26.90
69082;DHT22;56184;51.986;5.760;2022-08-21T13:43:59;41.90;26.50
69082;DHT22;56184;51.986;5.760;2022-08-21T13:46:30;42.50;26.50
69082;DHT22;56184;51.986;5.760;2022-08-21T13:48:59;41.30;24.50
69082;DHT22;56184;51.986;5.760;2022-08-21T13:51:25;41.90;28.60
69082;DHT22;56184;51.986;5.760;2022-08-21T13:53:52;41.50;24.80
69082;DHT22;56184;51.986;5.760;2022-08-21T13:56:32;40.80;24.30
69082;DHT22;56184;51.986;5.760;2022-08-21T13:58:59;40.90;26.10
69082;DHT22;56184;51.986;5.760;2022-08-21T14:03:59;41.90;24.70
69082;DHT22;56184;51.986;5.760;2022-08-21T14:06:32;42.20;24.90
69082;DHT22;56184;51.986;5.760;2022-08-21T14:09:10;42.00;24.90
69082;DHT22;56184;51.986;5.760;2022-08-21T14:11:36;42.50;25.50
69082;DHT22;56184;51.986;5.760;2022-08-21T14:14:18;43.90;24.40
69082;DHT22;56184;51.986;5.760;2022-08-21T14:16:52;43.70;24.40
69082;DHT22;56184;51.986;5.760;2022-08-21T14:21:44;44.00;24.20
69082;DHT22;56184;51.986;5.760;2022-08-21T14:24:13;43.10;25.00
69082;DHT22;56184;51.986;5.760;2022-08-21T14:26:56;43.00;24.80
69082;DHT22;56184;51.986;5.760;2022-08-21T14:29:26;43.20;24.70
69082;DHT22;56184;51.986;5.760;2022-08-21T14:31:56;42.80;23.70
69082;DHT22;56184;51.986;5.760;2022-08-21T14:34:26;42.20;25.70
69082;DHT22;56184;51.986;5.760;2022-08-21T14:36:53;43.30;24.00
69082;DHT22;56184;51.986;5.760;2022-08-21T14:39:20;43.20;23.80
69082;DHT22;56184;51.986;5.760;2022-08-21T14:41:46;42.00;25.50
69082;DHT22;56184;51.986;5.760;2022-08-21T14:44:14;40.70;25.20
69082;DHT22;56184;51.986;5.760;2022-08-21T14:46:41;40.30;24.50
69082;DHT22;56184;51.986;5.760;2022-08-21T14:49:06;41.10;24.80
69082;DHT22;56184;51.986;5.760;2022-08-21T14:51:32;42.40;24.30
69082;DHT22;56184;51.986;5.760;2022-08-21T14:53:58;41.50;24.00
69082;DHT22;56184;51.986;5.760;2022-08-21T14:56:24;41.10;23.40
69082;DHT22;56184;51.986;5.760;2022-08-21T14:58:51;39.80;25.00
69082;DHT22;56184;51.986;5.760;2022-08-21T15:01:20;39.70;24.90
69082;DHT22;56184;51.986;5.760;2022-08-21T15:03:46;39.30;24.30
69082;DHT22;56184;51.986;5.760;2022-08-21T15:06:14;38.70;25.90
69082;DHT22;56184;51.986;5.760;2022-08-21T15:08:39;38.00;25.60
69082;DHT22;56184;51.986;5.760;2022-08-21T15:11:06;37.70;26.10
69082;DHT22;56184;51.986;5.760;2022-08-21T15:13:33;36.50;26.20
69082;DHT22;56184;51.986;5.760;2022-08-21T15:15:59;35.60;27.40
69082;DHT22;56184;51.986;5.760;2022-08-21T15:18:25;34.80;28.30
69082;DHT22;56184;51.986;5.760;2022-08-21T15:20:51;33.90;28.30
69082;DHT22;56184;51.986;5.760;2022-08-21T15:23:17;33.60;29.00
69082;DHT22;56184;51.986;5.760;2022-08-21T15:25:45;33.00;29.80
69082;DHT22;56184;51.986;5.760;2022-08-21T15:28:11;33.00;30.10
69082;DHT22;56184;51.986;5.760;2022-08-21T15:30:39;32.80;30.30
69082;DHT22;56184;51.986;5.760;2022-08-21T15:33:06;32.40;30.70
69082;DHT22;56184;51.986;5.760;2022-08-21T15:35:32;31.90;31.30
69082;DHT22;56184;51.986;5.760;2022-08-21T15:37:57;31.50;31.60
69082;DHT22;56184;51.986;5.760;2022-08-21T15:40:25;31.00;32.60
69082;DHT22;56184;51.986;5.760;2022-08-21T15:42:53;30.90;33.00
69082;DHT22;56184;51.986;5.760;2022-08-21T15:45:21;30.40;33.40
69082;DHT22;56184;51.986;5.760;2022-08-21T15:47:49;30.30;34.00
69082;DHT22;56184;51.986;5.760;2022-08-21T15:50:15;30.10;35.70
69082;DHT22;56184;51.986;5.760;2022-08-21T15:52:40;29.80;35.30
69082;DHT22;56184;51.986;5.760;2022-08-21T15:55:07;29.20;35.20
69082;DHT22;56184;51.986;5.760;2022-08-21T15:57:34;29.00;35.80
69082;DHT22;56184;51.986;5.760;2022-08-21T16:00:10;28.70;36.40
69082;DHT22;56184;51.986;5.760;2022-08-21T16:02:40;28.50;37.20
69082;DHT22;56184;51.986;5.760;2022-08-21T16:05:08;28.50;37.40
69082;DHT22;56184;51.986;5.760;2022-08-21T16:07:36;28.40;36.60
69082;DHT22;56184;51.986;5.760;2022-08-21T16:10:02;28.40;36.60
69082;DHT22;56184;51.986;5.760;2022-08-21T16:12:31;28.30;37.00
69082;DHT22;56184;51.986;5.760;2022-08-21T16:14:58;28.40;37.30
69082;DHT22;56184;51.986;5.760;2022-08-21T16:17:28;28.40;37.10
69082;DHT22;56184;51.986;5.760;2022-08-21T16:19:55;28.20;37.20
69082;DHT22;56184;51.986;5.760;2022-08-21T16:22:20;28.40;36.90
69082;DHT22;56184;51.986;5.760;2022-08-21T16:24:46;28.40;37.30
69082;DHT22;56184;51.986;5.760;2022-08-21T16:27:21;28.50;37.30
69082;DHT22;56184;51.986;5.760;2022-08-21T16:29:47;28.20;37.40
69082;DHT22;56184;51.986;5.760;2022-08-21T16:32:13;27.70;38.40
69082;DHT22;56184;51.986;5.760;2022-08-21T16:34:43;27.40;39.60
69082;DHT22;56184;51.986;5.760;2022-08-21T16:37:09;27.10;40.60
69082;DHT22;56184;51.986;5.760;2022-08-21T16:39:35;26.80;41.20
69082;DHT22;56184;51.986;5.760;2022-08-21T16:42:03;26.70;41.40
69082;DHT22;56184;51.986;5.760;2022-08-21T16:44:29;26.60;42.40
69082;DHT22;56184;51.986;5.760;2022-08-21T16:46:54;26.50;42.50
69082;DHT22;56184;51.986;5.760;2022-08-21T16:49:20;26.40;43.40
69082;DHT22;56184;51.986;5.760;2022-08-21T16:51:46;26.40;42.30
69082;DHT22;56184;51.986;5.760;2022-08-21T16:54:12;26.30;44.10
69082;DHT22;56184;51.986;5.760;2022-08-21T16:56:39;26.30;42.90
69082;DHT22;56184;51.986;5.760;2022-08-21T16:59:05;26.30;42.70
69082;DHT22;56184;51.986;5.760;2022-08-21T17:01:32;26.30;42.10
69082;DHT22;56184;51.986;5.760;2022-08-21T17:03:58;26.30;42.90
69082;DHT22;56184;51.986;5.760;2022-08-21T17:06:24;26.10;42.80